< < Back
Terminal Aerodrome Forecast


Current Version              Previous Versions:   1  2  3  4  5  6  7  8  9  

Terminal Aerodrome Forecast

282
FTUS42 KGSP 130905 AAA
TAFAVL
TAF AMD
KAVL 130905Z 1309/1406 35020G28KT 4SM -SHSN BKN028 OVC035
     FM131300 35014G24KT P6SM SCT250
     FM140100 34009KT P6SM FEW250=

Latest METAR

459
SAUS70 KWBC 131700 RRD
MTRAVL
METAR KAVL 131654Z 33011G20KT 10SM CLR M03/M14 A3028 RMK AO2 SLP267
T10281144


USA.gov is the U.S. government's official web portal to all federal, state and local government web resources and services.